sensor_id;sensor_type;location;lat;lon;timestamp;P1;durP1;ratioP1;P2;durP2;ratioP2
53519;SDS011;39397;53.204;5.778;2023-03-25T00:01:31;25.02;;;5.10;;
53519;SDS011;39397;53.204;5.778;2023-03-25T00:03:58;26.27;;;4.43;;
53519;SDS011;39397;53.204;5.778;2023-03-25T00:06:25;20.92;;;3.30;;
53519;SDS011;39397;53.204;5.778;2023-03-25T00:08:52;19.77;;;4.35;;
53519;SDS011;39397;53.204;5.778;2023-03-25T00:11:19;27.08;;;3.78;;
53519;SDS011;39397;53.204;5.778;2023-03-25T00:13:45;24.02;;;3.40;;
53519;SDS011;39397;53.204;5.778;2023-03-25T00:16:12;22.20;;;3.92;;
53519;SDS011;39397;53.204;5.778;2023-03-25T00:18:38;26.40;;;3.75;;
53519;SDS011;39397;53.204;5.778;2023-03-25T00:21:05;24.75;;;4.60;;
53519;SDS011;39397;53.204;5.778;2023-03-25T00:23:35;22.52;;;4.70;;
53519;SDS011;39397;53.204;5.778;2023-03-25T00:26:01;20.17;;;3.60;;
53519;SDS011;39397;53.204;5.778;2023-03-25T00:28:29;33.75;;;4.82;;
53519;SDS011;39397;53.204;5.778;2023-03-25T00:30:58;23.15;;;3.92;;
53519;SDS011;39397;53.204;5.778;2023-03-25T00:33:29;31.38;;;4.85;;
53519;SDS011;39397;53.204;5.778;2023-03-25T00:35:59;25.75;;;4.68;;
53519;SDS011;39397;53.204;5.778;2023-03-25T00:38:29;26.75;;;4.93;;
53519;SDS011;39397;53.204;5.778;2023-03-25T00:43:57;28.35;;;4.82;;
53519;SDS011;39397;53.204;5.778;2023-03-25T00:46:24;29.60;;;5.45;;
53519;SDS011;39397;53.204;5.778;2023-03-25T00:48:51;22.83;;;5.05;;
53519;SDS011;39397;53.204;5.778;2023-03-25T00:51:18;30.52;;;4.60;;
53519;SDS011;39397;53.204;5.778;2023-03-25T00:53:46;28.85;;;4.78;;
53519;SDS011;39397;53.204;5.778;2023-03-25T00:56:24;26.35;;;4.15;;
53519;SDS011;39397;53.204;5.778;2023-03-25T00:58:51;22.73;;;3.95;;
53519;SDS011;39397;53.204;5.778;2023-03-25T01:01:21;41.13;;;6.78;;
53519;SDS011;39397;53.204;5.778;2023-03-25T01:03:51;29.63;;;4.55;;
53519;SDS011;39397;53.204;5.778;2023-03-25T01:06:28;28.27;;;4.80;;
53519;SDS011;39397;53.204;5.778;2023-03-25T01:11:27;29.60;;;3.80;;
53519;SDS011;39397;53.204;5.778;2023-03-25T01:13:55;34.95;;;5.65;;
53519;SDS011;39397;53.204;5.778;2023-03-25T01:16:23;31.50;;;4.80;;
53519;SDS011;39397;53.204;5.778;2023-03-25T01:18:49;26.10;;;3.85;;
53519;SDS011;39397;53.204;5.778;2023-03-25T01:21:16;27.67;;;5.22;;
53519;SDS011;39397;53.204;5.778;2023-03-25T01:23:42;35.83;;;5.30;;
53519;SDS011;39397;53.204;5.778;2023-03-25T01:26:08;22.38;;;4.50;;
53519;SDS011;39397;53.204;5.778;2023-03-25T01:28:34;24.33;;;4.03;;
53519;SDS011;39397;53.204;5.778;2023-03-25T01:31:04;28.63;;;4.13;;
53519;SDS011;39397;53.204;5.778;2023-03-25T01:33:32;28.30;;;6.05;;
53519;SDS011;39397;53.204;5.778;2023-03-25T01:35:59;31.90;;;4.68;;
53519;SDS011;39397;53.204;5.778;2023-03-25T01:38:26;30.52;;;5.95;;
53519;SDS011;39397;53.204;5.778;2023-03-25T01:40:52;30.20;;;4.93;;
53519;SDS011;39397;53.204;5.778;2023-03-25T01:43:19;29.05;;;4.80;;
53519;SDS011;39397;53.204;5.778;2023-03-25T01:45:46;33.80;;;6.55;;
53519;SDS011;39397;53.204;5.778;2023-03-25T01:48:16;25.27;;;4.97;;
53519;SDS011;39397;53.204;5.778;2023-03-25T01:50:56;26.27;;;4.95;;
53519;SDS011;39397;53.204;5.778;2023-03-25T01:53:26;20.83;;;4.40;;
53519;SDS011;39397;53.204;5.778;2023-03-25T01:55:54;26.63;;;4.75;;
53519;SDS011;39397;53.204;5.778;2023-03-25T01:58:20;33.20;;;6.00;;
53519;SDS011;39397;53.204;5.778;2023-03-25T02:00:48;28.30;;;4.95;;
53519;SDS011;39397;53.204;5.778;2023-03-25T02:03:15;30.58;;;5.15;;
53519;SDS011;39397;53.204;5.778;2023-03-25T02:06:01;32.25;;;5.22;;
53519;SDS011;39397;53.204;5.778;2023-03-25T02:08:31;38.58;;;5.85;;
53519;SDS011;39397;53.204;5.778;2023-03-25T02:11:02;26.98;;;4.72;;
53519;SDS011;39397;53.204;5.778;2023-03-25T02:13:29;31.63;;;6.35;;
53519;SDS011;39397;53.204;5.778;2023-03-25T02:27:18;34.53;;;6.13;;
53519;SDS011;39397;53.204;5.778;2023-03-25T02:35:52;26.38;;;5.07;;
53519;SDS011;39397;53.204;5.778;2023-03-25T02:41:18;26.42;;;4.35;;
53519;SDS011;39397;53.204;5.778;2023-03-25T02:46:37;23.77;;;4.50;;
53519;SDS011;39397;53.204;5.778;2023-03-25T02:49:07;30.05;;;5.68;;
53519;SDS011;39397;53.204;5.778;2023-03-25T02:51:40;33.55;;;5.22;;
53519;SDS011;39397;53.204;5.778;2023-03-25T02:54:13;28.85;;;5.35;;
53519;SDS011;39397;53.204;5.778;2023-03-25T02:56:41;32.78;;;5.95;;
53519;SDS011;39397;53.204;5.778;2023-03-25T02:59:09;33.83;;;4.55;;
53519;SDS011;39397;53.204;5.778;2023-03-25T03:01:41;27.83;;;5.60;;
53519;SDS011;39397;53.204;5.778;2023-03-25T03:04:08;34.58;;;5.63;;
53519;SDS011;39397;53.204;5.778;2023-03-25T03:06:35;28.00;;;4.22;;
53519;SDS011;39397;53.204;5.778;2023-03-25T03:14:33;34.50;;;6.15;;
53519;SDS011;39397;53.204;5.778;2023-03-25T03:17:30;27.50;;;4.70;;
53519;SDS011;39397;53.204;5.778;2023-03-25T03:28:27;30.35;;;4.18;;
53519;SDS011;39397;53.204;5.778;2023-03-25T03:31:04;33.38;;;5.95;;
53519;SDS011;39397;53.204;5.778;2023-03-25T03:33:41;25.35;;;5.40;;
53519;SDS011;39397;53.204;5.778;2023-03-25T03:36:19;33.45;;;4.47;;
53519;SDS011;39397;53.204;5.778;2023-03-25T03:38:49;27.00;;;4.65;;
53519;SDS011;39397;53.204;5.778;2023-03-25T03:41:23;30.52;;;5.00;;
53519;SDS011;39397;53.204;5.778;2023-03-25T03:43:53;27.63;;;5.53;;
53519;SDS011;39397;53.204;5.778;2023-03-25T03:46:31;25.88;;;4.57;;
53519;SDS011;39397;53.204;5.778;2023-03-25T03:49:00;30.88;;;4.93;;
53519;SDS011;39397;53.204;5.778;2023-03-25T03:51:31;37.25;;;6.35;;
53519;SDS011;39397;53.204;5.778;2023-03-25T03:54:05;30.27;;;4.70;;
53519;SDS011;39397;53.204;5.778;2023-03-25T03:56:54;31.80;;;7.18;;
53519;SDS011;39397;53.204;5.778;2023-03-25T04:02:01;29.88;;;5.43;;
53519;SDS011;39397;53.204;5.778;2023-03-25T04:04:32;34.45;;;6.05;;
53519;SDS011;39397;53.204;5.778;2023-03-25T04:07:03;32.42;;;6.35;;
53519;SDS011;39397;53.204;5.778;2023-03-25T04:15:14;26.83;;;3.97;;
53519;SDS011;39397;53.204;5.778;2023-03-25T04:17:40;23.55;;;4.53;;
53519;SDS011;39397;53.204;5.778;2023-03-25T04:20:16;28.17;;;4.65;;
53519;SDS011;39397;53.204;5.778;2023-03-25T04:22:48;23.73;;;4.57;;
53519;SDS011;39397;53.204;5.778;2023-03-25T04:25:17;25.27;;;4.40;;
53519;SDS011;39397;53.204;5.778;2023-03-25T04:27:45;26.80;;;5.30;;
53519;SDS011;39397;53.204;5.778;2023-03-25T04:30:13;26.25;;;4.93;;
53519;SDS011;39397;53.204;5.778;2023-03-25T04:32:42;28.10;;;4.85;;
53519;SDS011;39397;53.204;5.778;2023-03-25T04:35:11;26.98;;;4.40;;
53519;SDS011;39397;53.204;5.778;2023-03-25T04:37:38;26.35;;;4.45;;
53519;SDS011;39397;53.204;5.778;2023-03-25T04:40:06;29.27;;;4.43;;
53519;SDS011;39397;53.204;5.778;2023-03-25T04:42:33;26.67;;;4.70;;
53519;SDS011;39397;53.204;5.778;2023-03-25T04:45:01;26.52;;;4.65;;
53519;SDS011;39397;53.204;5.778;2023-03-25T04:47:31;33.13;;;5.65;;
53519;SDS011;39397;53.204;5.778;2023-03-25T04:49:57;28.30;;;4.60;;
53519;SDS011;39397;53.204;5.778;2023-03-25T04:52:23;31.85;;;5.55;;
53519;SDS011;39397;53.204;5.778;2023-03-25T04:54:48;29.80;;;5.88;;
53519;SDS011;39397;53.204;5.778;2023-03-25T04:57:14;28.13;;;5.00;;
53519;SDS011;39397;53.204;5.778;2023-03-25T04:59:40;25.48;;;4.57;;
53519;SDS011;39397;53.204;5.778;2023-03-25T05:02:06;20.58;;;4.93;;
53519;SDS011;39397;53.204;5.778;2023-03-25T05:04:37;28.83;;;4.70;;
53519;SDS011;39397;53.204;5.778;2023-03-25T05:07:06;36.10;;;5.78;;
53519;SDS011;39397;53.204;5.778;2023-03-25T05:09:32;24.48;;;4.32;;
53519;SDS011;39397;53.204;5.778;2023-03-25T05:11:58;24.25;;;4.55;;
53519;SDS011;39397;53.204;5.778;2023-03-25T05:14:23;29.17;;;4.60;;
53519;SDS011;39397;53.204;5.778;2023-03-25T05:16:49;24.95;;;5.68;;
53519;SDS011;39397;53.204;5.778;2023-03-25T05:19:15;25.25;;;5.20;;
53519;SDS011;39397;53.204;5.778;2023-03-25T05:21:43;23.08;;;3.92;;
53519;SDS011;39397;53.204;5.778;2023-03-25T05:24:09;20.50;;;4.18;;
53519;SDS011;39397;53.204;5.778;2023-03-25T05:26:37;23.77;;;4.72;;
53519;SDS011;39397;53.204;5.778;2023-03-25T05:29:05;28.15;;;4.55;;
53519;SDS011;39397;53.204;5.778;2023-03-25T05:31:33;29.30;;;4.82;;
53519;SDS011;39397;53.204;5.778;2023-03-25T05:34:00;28.70;;;4.68;;
53519;SDS011;39397;53.204;5.778;2023-03-25T05:36:26;17.27;;;3.65;;
53519;SDS011;39397;53.204;5.778;2023-03-25T05:38:52;25.05;;;4.57;;
53519;SDS011;39397;53.204;5.778;2023-03-25T05:41:19;25.90;;;4.18;;
53519;SDS011;39397;53.204;5.778;2023-03-25T05:43:46;26.63;;;4.55;;
53519;SDS011;39397;53.204;5.778;2023-03-25T05:46:14;27.77;;;5.75;;
53519;SDS011;39397;53.204;5.778;2023-03-25T05:48:42;29.10;;;5.55;;
53519;SDS011;39397;53.204;5.778;2023-03-25T05:51:12;24.70;;;4.75;;
53519;SDS011;39397;53.204;5.778;2023-03-25T05:53:41;26.77;;;4.07;;
53519;SDS011;39397;53.204;5.778;2023-03-25T05:56:08;26.33;;;5.75;;
53519;SDS011;39397;53.204;5.778;2023-03-25T05:58:35;26.05;;;5.30;;
53519;SDS011;39397;53.204;5.778;2023-03-25T06:01:01;25.95;;;4.40;;
53519;SDS011;39397;53.204;5.778;2023-03-25T06:03:29;20.92;;;4.70;;
53519;SDS011;39397;53.204;5.778;2023-03-25T06:05:58;25.20;;;4.65;;
53519;SDS011;39397;53.204;5.778;2023-03-25T06:08:26;26.92;;;4.35;;
53519;SDS011;39397;53.204;5.778;2023-03-25T06:10:54;23.98;;;3.63;;
53519;SDS011;39397;53.204;5.778;2023-03-25T06:13:22;31.52;;;4.28;;
53519;SDS011;39397;53.204;5.778;2023-03-25T06:15:48;21.77;;;3.78;;
53519;SDS011;39397;53.204;5.778;2023-03-25T06:18:20;25.42;;;4.38;;
53519;SDS011;39397;53.204;5.778;2023-03-25T06:20:49;20.15;;;4.00;;
53519;SDS011;39397;53.204;5.778;2023-03-25T06:23:21;25.15;;;4.13;;
53519;SDS011;39397;53.204;5.778;2023-03-25T06:25:51;20.00;;;4.05;;
53519;SDS011;39397;53.204;5.778;2023-03-25T06:28:18;25.17;;;4.47;;
53519;SDS011;39397;53.204;5.778;2023-03-25T06:30:45;21.45;;;4.00;;
53519;SDS011;39397;53.204;5.778;2023-03-25T06:33:11;20.02;;;4.68;;
53519;SDS011;39397;53.204;5.778;2023-03-25T06:35:38;21.50;;;4.57;;
53519;SDS011;39397;53.204;5.778;2023-03-25T06:38:06;23.40;;;4.38;;
53519;SDS011;39397;53.204;5.778;2023-03-25T06:40:36;25.70;;;4.38;;
53519;SDS011;39397;53.204;5.778;2023-03-25T06:43:05;25.13;;;4.50;;
53519;SDS011;39397;53.204;5.778;2023-03-25T06:45:31;18.27;;;3.75;;
53519;SDS011;39397;53.204;5.778;2023-03-25T06:47:57;22.00;;;4.55;;
53519;SDS011;39397;53.204;5.778;2023-03-25T06:50:24;21.33;;;3.25;;
53519;SDS011;39397;53.204;5.778;2023-03-25T06:52:50;18.38;;;2.92;;
53519;SDS011;39397;53.204;5.778;2023-03-25T06:55:15;18.50;;;3.47;;
53519;SDS011;39397;53.204;5.778;2023-03-25T06:57:41;25.13;;;3.42;;
53519;SDS011;39397;53.204;5.778;2023-03-25T07:00:07;16.50;;;3.45;;
53519;SDS011;39397;53.204;5.778;2023-03-25T07:02:36;19.17;;;3.92;;
53519;SDS011;39397;53.204;5.778;2023-03-25T07:05:02;20.00;;;3.35;;
53519;SDS011;39397;53.204;5.778;2023-03-25T07:07:28;19.92;;;4.13;;
53519;SDS011;39397;53.204;5.778;2023-03-25T07:09:54;19.67;;;4.22;;
53519;SDS011;39397;53.204;5.778;2023-03-25T07:12:20;12.27;;;3.15;;
53519;SDS011;39397;53.204;5.778;2023-03-25T07:14:53;22.10;;;3.95;;
53519;SDS011;39397;53.204;5.778;2023-03-25T07:17:20;14.07;;;2.53;;
53519;SDS011;39397;53.204;5.778;2023-03-25T07:19:46;15.77;;;2.30;;
53519;SDS011;39397;53.204;5.778;2023-03-25T07:22:12;13.00;;;3.35;;
53519;SDS011;39397;53.204;5.778;2023-03-25T07:24:38;19.08;;;4.03;;
53519;SDS011;39397;53.204;5.778;2023-03-25T07:27:04;19.77;;;3.00;;
53519;SDS011;39397;53.204;5.778;2023-03-25T07:29:30;17.60;;;3.05;;
53519;SDS011;39397;53.204;5.778;2023-03-25T07:31:55;14.70;;;3.45;;
53519;SDS011;39397;53.204;5.778;2023-03-25T07:34:24;18.52;;;3.40;;
53519;SDS011;39397;53.204;5.778;2023-03-25T07:36:50;18.98;;;3.13;;
53519;SDS011;39397;53.204;5.778;2023-03-25T07:39:15;18.48;;;2.90;;
53519;SDS011;39397;53.204;5.778;2023-03-25T07:41:42;25.10;;;3.97;;
53519;SDS011;39397;53.204;5.778;2023-03-25T07:44:08;23.25;;;3.17;;
53519;SDS011;39397;53.204;5.778;2023-03-25T07:46:34;24.58;;;4.13;;
53519;SDS011;39397;53.204;5.778;2023-03-25T07:49:00;24.10;;;4.85;;
53519;SDS011;39397;53.204;5.778;2023-03-25T07:51:26;21.88;;;3.63;;
53519;SDS011;39397;53.204;5.778;2023-03-25T07:53:51;19.85;;;3.25;;
53519;SDS011;39397;53.204;5.778;2023-03-25T07:56:17;21.27;;;3.55;;
53519;SDS011;39397;53.204;5.778;2023-03-25T07:58:43;19.08;;;3.22;;
53519;SDS011;39397;53.204;5.778;2023-03-25T08:01:09;21.17;;;3.67;;
53519;SDS011;39397;53.204;5.778;2023-03-25T08:03:35;26.40;;;5.05;;
53519;SDS011;39397;53.204;5.778;2023-03-25T08:06:04;22.42;;;4.38;;
53519;SDS011;39397;53.204;5.778;2023-03-25T08:08:33;18.92;;;4.97;;
53519;SDS011;39397;53.204;5.778;2023-03-25T08:11:02;16.48;;;3.40;;
53519;SDS011;39397;53.204;5.778;2023-03-25T08:13:28;22.65;;;3.78;;
53519;SDS011;39397;53.204;5.778;2023-03-25T08:15:54;21.45;;;3.55;;
53519;SDS011;39397;53.204;5.778;2023-03-25T08:18:24;19.15;;;3.58;;
53519;SDS011;39397;53.204;5.778;2023-03-25T08:20:50;13.18;;;3.20;;
53519;SDS011;39397;53.204;5.778;2023-03-25T08:23:16;16.13;;;3.22;;
53519;SDS011;39397;53.204;5.778;2023-03-25T08:25:44;15.38;;;3.00;;
53519;SDS011;39397;53.204;5.778;2023-03-25T08:28:14;15.35;;;2.85;;
53519;SDS011;39397;53.204;5.778;2023-03-25T08:30:42;17.15;;;2.92;;
53519;SDS011;39397;53.204;5.778;2023-03-25T08:33:10;15.98;;;2.97;;
53519;SDS011;39397;53.204;5.778;2023-03-25T08:35:38;18.58;;;3.75;;
53519;SDS011;39397;53.204;5.778;2023-03-25T08:38:15;18.75;;;3.53;;
53519;SDS011;39397;53.204;5.778;2023-03-25T08:40:41;18.35;;;2.78;;
53519;SDS011;39397;53.204;5.778;2023-03-25T08:43:08;21.10;;;3.88;;
53519;SDS011;39397;53.204;5.778;2023-03-25T08:45:35;21.40;;;4.07;;
53519;SDS011;39397;53.204;5.778;2023-03-25T08:48:01;18.08;;;2.80;;
53519;SDS011;39397;53.204;5.778;2023-03-25T08:50:28;17.45;;;3.60;;
53519;SDS011;39397;53.204;5.778;2023-03-25T08:52:55;17.45;;;3.60;;
53519;SDS011;39397;53.204;5.778;2023-03-25T08:55:22;21.45;;;3.50;;
53519;SDS011;39397;53.204;5.778;2023-03-25T08:57:49;17.48;;;4.43;;
53519;SDS011;39397;53.204;5.778;2023-03-25T09:00:15;18.42;;;3.38;;
53519;SDS011;39397;53.204;5.778;2023-03-25T09:02:41;21.38;;;3.30;;
53519;SDS011;39397;53.204;5.778;2023-03-25T09:05:08;17.35;;;3.25;;
53519;SDS011;39397;53.204;5.778;2023-03-25T09:07:35;19.48;;;3.13;;
53519;SDS011;39397;53.204;5.778;2023-03-25T09:10:02;24.75;;;3.83;;
53519;SDS011;39397;53.204;5.778;2023-03-25T09:12:29;19.40;;;4.32;;
53519;SDS011;39397;53.204;5.778;2023-03-25T09:14:54;21.85;;;3.38;;
53519;SDS011;39397;53.204;5.778;2023-03-25T09:17:20;13.98;;;2.45;;
53519;SDS011;39397;53.204;5.778;2023-03-25T09:19:46;15.02;;;3.53;;
53519;SDS011;39397;53.204;5.778;2023-03-25T09:22:12;20.92;;;3.38;;
53519;SDS011;39397;53.204;5.778;2023-03-25T09:24:39;20.13;;;3.70;;
53519;SDS011;39397;53.204;5.778;2023-03-25T09:27:05;24.60;;;8.05;;
53519;SDS011;39397;53.204;5.778;2023-03-25T09:29:31;18.55;;;3.67;;
53519;SDS011;39397;53.204;5.778;2023-03-25T09:31:57;14.40;;;2.55;;
53519;SDS011;39397;53.204;5.778;2023-03-25T09:34:26;18.08;;;3.35;;
53519;SDS011;39397;53.204;5.778;2023-03-25T09:36:53;14.38;;;2.97;;
53519;SDS011;39397;53.204;5.778;2023-03-25T09:39:20;19.05;;;3.97;;
53519;SDS011;39397;53.204;5.778;2023-03-25T09:44:38;22.70;;;3.72;;
53519;SDS011;39397;53.204;5.778;2023-03-25T09:47:18;23.08;;;4.82;;
53519;SDS011;39397;53.204;5.778;2023-03-25T09:49:49;18.23;;;3.25;;
53519;SDS011;39397;53.204;5.778;2023-03-25T09:52:23;19.63;;;3.28;;
53519;SDS011;39397;53.204;5.778;2023-03-25T09:54:58;22.90;;;4.07;;
53519;SDS011;39397;53.204;5.778;2023-03-25T09:57:32;25.88;;;5.07;;
53519;SDS011;39397;53.204;5.778;2023-03-25T10:00:28;25.15;;;4.00;;
53519;SDS011;39397;53.204;5.778;2023-03-25T10:03:04;19.27;;;3.92;;
53519;SDS011;39397;53.204;5.778;2023-03-25T10:11:38;23.85;;;3.88;;
53519;SDS011;39397;53.204;5.778;2023-03-25T10:14:13;19.08;;;4.05;;
53519;SDS011;39397;53.204;5.778;2023-03-25T10:21:57;20.60;;;4.15;;
53519;SDS011;39397;53.204;5.778;2023-03-25T10:24:49;19.15;;;4.22;;
53519;SDS011;39397;53.204;5.778;2023-03-25T10:32:40;13.20;;;2.88;;
53519;SDS011;39397;53.204;5.778;2023-03-25T10:35:28;20.88;;;4.45;;
53519;SDS011;39397;53.204;5.778;2023-03-25T10:37:57;17.25;;;3.63;;
53519;SDS011;39397;53.204;5.778;2023-03-25T10:40:38;18.98;;;3.72;;
53519;SDS011;39397;53.204;5.778;2023-03-25T10:43:25;20.00;;;3.90;;
53519;SDS011;39397;53.204;5.778;2023-03-25T10:45:58;17.95;;;3.42;;
53519;SDS011;39397;53.204;5.778;2023-03-25T10:49:02;18.02;;;3.20;;
53519;SDS011;39397;53.204;5.778;2023-03-25T10:51:29;19.27;;;3.45;;
53519;SDS011;39397;53.204;5.778;2023-03-25T10:53:58;17.13;;;4.03;;
53519;SDS011;39397;53.204;5.778;2023-03-25T10:56:25;17.85;;;3.58;;
53519;SDS011;39397;53.204;5.778;2023-03-25T10:59:12;14.63;;;3.30;;
53519;SDS011;39397;53.204;5.778;2023-03-25T11:02:01;19.70;;;4.30;;
53519;SDS011;39397;53.204;5.778;2023-03-25T11:04:40;18.30;;;3.03;;
53519;SDS011;39397;53.204;5.778;2023-03-25T11:07:15;16.42;;;3.97;;
53519;SDS011;39397;53.204;5.778;2023-03-25T11:09:49;18.92;;;3.55;;
53519;SDS011;39397;53.204;5.778;2023-03-25T11:12:19;21.85;;;4.07;;
53519;SDS011;39397;53.204;5.778;2023-03-25T11:14:55;20.17;;;4.13;;
53519;SDS011;39397;53.204;5.778;2023-03-25T11:17:21;21.90;;;3.95;;
53519;SDS011;39397;53.204;5.778;2023-03-25T11:22:19;23.90;;;4.35;;
53519;SDS011;39397;53.204;5.778;2023-03-25T11:25:11;18.80;;;3.88;;
53519;SDS011;39397;53.204;5.778;2023-03-25T11:27:45;16.00;;;3.58;;
53519;SDS011;39397;53.204;5.778;2023-03-25T11:30:18;18.73;;;4.03;;
53519;SDS011;39397;53.204;5.778;2023-03-25T11:32:59;22.38;;;4.88;;
53519;SDS011;39397;53.204;5.778;2023-03-25T11:35:29;19.25;;;3.45;;
53519;SDS011;39397;53.204;5.778;2023-03-25T11:38:12;21.05;;;3.20;;
53519;SDS011;39397;53.204;5.778;2023-03-25T11:40:51;17.85;;;3.90;;
53519;SDS011;39397;53.204;5.778;2023-03-25T11:43:24;15.10;;;3.78;;
53519;SDS011;39397;53.204;5.778;2023-03-25T11:45:58;18.88;;;3.90;;
53519;SDS011;39397;53.204;5.778;2023-03-25T11:48:36;16.30;;;3.47;;
53519;SDS011;39397;53.204;5.778;2023-03-25T11:51:05;17.08;;;3.45;;
53519;SDS011;39397;53.204;5.778;2023-03-25T11:53:36;17.88;;;3.75;;
53519;SDS011;39397;53.204;5.778;2023-03-25T11:56:08;10.75;;;2.25;;
53519;SDS011;39397;53.204;5.778;2023-03-25T11:58:36;17.92;;;3.20;;
53519;SDS011;39397;53.204;5.778;2023-03-25T12:01:05;17.42;;;2.90;;
53519;SDS011;39397;53.204;5.778;2023-03-25T12:03:44;15.23;;;2.85;;
53519;SDS011;39397;53.204;5.778;2023-03-25T12:08:48;20.23;;;3.55;;
53519;SDS011;39397;53.204;5.778;2023-03-25T12:11:34;16.67;;;2.67;;
53519;SDS011;39397;53.204;5.778;2023-03-25T12:17:16;21.42;;;4.70;;
53519;SDS011;39397;53.204;5.778;2023-03-25T12:20:13;12.65;;;2.97;;
53519;SDS011;39397;53.204;5.778;2023-03-25T12:31:26;19.70;;;3.72;;
53519;SDS011;39397;53.204;5.778;2023-03-25T12:37:18;24.45;;;3.15;;
53519;SDS011;39397;53.204;5.778;2023-03-25T12:42:57;29.90;;;4.82;;
53519;SDS011;39397;53.204;5.778;2023-03-25T12:45:40;27.38;;;4.47;;
53519;SDS011;39397;53.204;5.778;2023-03-25T12:48:22;17.98;;;3.80;;
53519;SDS011;39397;53.204;5.778;2023-03-25T12:51:06;26.63;;;5.13;;
53519;SDS011;39397;53.204;5.778;2023-03-25T12:56:37;24.70;;;4.90;;
53519;SDS011;39397;53.204;5.778;2023-03-25T13:04:48;21.25;;;4.05;;
53519;SDS011;39397;53.204;5.778;2023-03-25T13:10:13;20.88;;;3.45;;
53519;SDS011;39397;53.204;5.778;2023-03-25T13:12:41;22.63;;;2.85;;
53519;SDS011;39397;53.204;5.778;2023-03-25T13:20:36;14.57;;;2.78;;
53519;SDS011;39397;53.204;5.778;2023-03-25T13:23:10;17.02;;;2.67;;
53519;SDS011;39397;53.204;5.778;2023-03-25T13:28:11;15.57;;;3.30;;
53519;SDS011;39397;53.204;5.778;2023-03-25T13:30:41;18.33;;;3.28;;
53519;SDS011;39397;53.204;5.778;2023-03-25T13:33:27;20.70;;;3.63;;
53519;SDS011;39397;53.204;5.778;2023-03-25T13:35:58;14.23;;;3.08;;
53519;SDS011;39397;53.204;5.778;2023-03-25T13:38:33;13.52;;;3.58;;
53519;SDS011;39397;53.204;5.778;2023-03-25T13:41:11;12.43;;;2.25;;
53519;SDS011;39397;53.204;5.778;2023-03-25T13:46:12;18.63;;;3.28;;
53519;SDS011;39397;53.204;5.778;2023-03-25T13:51:10;20.23;;;4.22;;
53519;SDS011;39397;53.204;5.778;2023-03-25T13:53:39;17.40;;;2.88;;
53519;SDS011;39397;53.204;5.778;2023-03-25T14:07:49;15.02;;;2.72;;
53519;SDS011;39397;53.204;5.778;2023-03-25T14:13:29;14.27;;;3.03;;
53519;SDS011;39397;53.204;5.778;2023-03-25T14:16:10;15.35;;;2.80;;
53519;SDS011;39397;53.204;5.778;2023-03-25T14:18:43;16.10;;;3.17;;
53519;SDS011;39397;53.204;5.778;2023-03-25T14:21:33;12.15;;;2.53;;
53519;SDS011;39397;53.204;5.778;2023-03-25T14:27:03;8.98;;;2.05;;
53519;SDS011;39397;53.204;5.778;2023-03-25T14:29:39;11.20;;;2.20;;
53519;SDS011;39397;53.204;5.778;2023-03-25T14:34:44;14.93;;;2.90;;
53519;SDS011;39397;53.204;5.778;2023-03-25T14:39:58;12.27;;;1.90;;
53519;SDS011;39397;53.204;5.778;2023-03-25T14:47:56;18.00;;;3.58;;
53519;SDS011;39397;53.204;5.778;2023-03-25T14:52:49;13.63;;;2.63;;
53519;SDS011;39397;53.204;5.778;2023-03-25T14:55:20;15.48;;;2.75;;
53519;SDS011;39397;53.204;5.778;2023-03-25T15:01:09;13.70;;;1.75;;
53519;SDS011;39397;53.204;5.778;2023-03-25T15:03:39;16.23;;;2.95;;
53519;SDS011;39397;53.204;5.778;2023-03-25T15:06:21;9.25;;;2.53;;
53519;SDS011;39397;53.204;5.778;2023-03-25T15:08:56;13.43;;;2.30;;
53519;SDS011;39397;53.204;5.778;2023-03-25T15:11:30;9.88;;;1.70;;
53519;SDS011;39397;53.204;5.778;2023-03-25T15:13:59;13.68;;;2.40;;
53519;SDS011;39397;53.204;5.778;2023-03-25T15:16:54;11.05;;;2.28;;
53519;SDS011;39397;53.204;5.778;2023-03-25T15:19:24;10.20;;;2.00;;
53519;SDS011;39397;53.204;5.778;2023-03-25T15:26:58;11.77;;;2.03;;
53519;SDS011;39397;53.204;5.778;2023-03-25T15:29:31;11.90;;;1.63;;
53519;SDS011;39397;53.204;5.778;2023-03-25T15:32:31;13.43;;;2.78;;
53519;SDS011;39397;53.204;5.778;2023-03-25T15:38:35;7.97;;;2.03;;
53519;SDS011;39397;53.204;5.778;2023-03-25T15:44:24;15.07;;;2.50;;
53519;SDS011;39397;53.204;5.778;2023-03-25T15:47:27;14.50;;;2.10;;
53519;SDS011;39397;53.204;5.778;2023-03-25T15:58:04;10.70;;;1.90;;
53519;SDS011;39397;53.204;5.778;2023-03-25T16:00:54;17.48;;;3.13;;
53519;SDS011;39397;53.204;5.778;2023-03-25T16:03:25;16.15;;;2.50;;
53519;SDS011;39397;53.204;5.778;2023-03-25T16:05:58;12.27;;;1.90;;
53519;SDS011;39397;53.204;5.778;2023-03-25T16:08:35;16.20;;;2.22;;
53519;SDS011;39397;53.204;5.778;2023-03-25T16:11:13;13.10;;;2.55;;
53519;SDS011;39397;53.204;5.778;2023-03-25T16:16:30;13.48;;;2.95;;
53519;SDS011;39397;53.204;5.778;2023-03-25T16:19:00;13.57;;;2.83;;
53519;SDS011;39397;53.204;5.778;2023-03-25T16:21:30;13.98;;;2.60;;
53519;SDS011;39397;53.204;5.778;2023-03-25T16:24:03;15.70;;;2.78;;
53519;SDS011;39397;53.204;5.778;2023-03-25T16:26:39;9.40;;;1.65;;
53519;SDS011;39397;53.204;5.778;2023-03-25T16:29:14;12.05;;;3.17;;
53519;SDS011;39397;53.204;5.778;2023-03-25T16:31:56;16.38;;;2.67;;
53519;SDS011;39397;53.204;5.778;2023-03-25T16:34:27;14.70;;;3.30;;
53519;SDS011;39397;53.204;5.778;2023-03-25T16:37:02;11.57;;;2.33;;
53519;SDS011;39397;53.204;5.778;2023-03-25T16:39:32;13.35;;;3.08;;
53519;SDS011;39397;53.204;5.778;2023-03-25T16:42:10;11.70;;;2.35;;
53519;SDS011;39397;53.204;5.778;2023-03-25T16:45:12;12.05;;;2.80;;
53519;SDS011;39397;53.204;5.778;2023-03-25T16:47:39;16.92;;;3.35;;
53519;SDS011;39397;53.204;5.778;2023-03-25T16:50:05;12.05;;;2.65;;
53519;SDS011;39397;53.204;5.778;2023-03-25T16:57:52;15.15;;;3.75;;
53519;SDS011;39397;53.204;5.778;2023-03-25T17:00:20;13.35;;;2.63;;
53519;SDS011;39397;53.204;5.778;2023-03-25T17:02:48;13.77;;;2.72;;
53519;SDS011;39397;53.204;5.778;2023-03-25T17:07:46;16.48;;;3.30;;
53519;SDS011;39397;53.204;5.778;2023-03-25T17:10:18;16.85;;;3.03;;
53519;SDS011;39397;53.204;5.778;2023-03-25T17:12:51;18.10;;;3.30;;
53519;SDS011;39397;53.204;5.778;2023-03-25T17:15:24;14.35;;;3.22;;
53519;SDS011;39397;53.204;5.778;2023-03-25T17:17:51;16.10;;;3.55;;
53519;SDS011;39397;53.204;5.778;2023-03-25T17:20:25;12.55;;;2.50;;
53519;SDS011;39397;53.204;5.778;2023-03-25T17:34:18;20.48;;;3.45;;
53519;SDS011;39397;53.204;5.778;2023-03-25T17:41:42;15.82;;;3.00;;
53519;SDS011;39397;53.204;5.778;2023-03-25T17:44:09;16.52;;;3.67;;
53519;SDS011;39397;53.204;5.778;2023-03-25T17:46:40;14.25;;;2.80;;
53519;SDS011;39397;53.204;5.778;2023-03-25T17:49:16;19.73;;;3.20;;
53519;SDS011;39397;53.204;5.778;2023-03-25T17:51:43;15.75;;;3.25;;
53519;SDS011;39397;53.204;5.778;2023-03-25T17:54:10;13.32;;;2.50;;
53519;SDS011;39397;53.204;5.778;2023-03-25T17:56:36;14.65;;;2.70;;
53519;SDS011;39397;53.204;5.778;2023-03-25T17:59:09;15.90;;;3.65;;
53519;SDS011;39397;53.204;5.778;2023-03-25T18:01:40;16.92;;;2.65;;
53519;SDS011;39397;53.204;5.778;2023-03-25T18:04:07;19.25;;;3.13;;
53519;SDS011;39397;53.204;5.778;2023-03-25T18:06:34;18.27;;;2.95;;
53519;SDS011;39397;53.204;5.778;2023-03-25T18:09:02;16.40;;;3.30;;
53519;SDS011;39397;53.204;5.778;2023-03-25T18:11:29;25.85;;;3.78;;
53519;SDS011;39397;53.204;5.778;2023-03-25T18:13:55;20.08;;;3.75;;
53519;SDS011;39397;53.204;5.778;2023-03-25T18:16:21;19.33;;;5.10;;